Norwood, MA

1:28 AM EDT on September 04, 2015 (GMT -0400)
Rosemary St | | Change Station
CLOSE
Current Station
Personal Weather Station
Location: Norwood, MA
Elevation: 200 ft
Nearby Weather Stations

Elev 200 ft 42.19 °N, 71.21 °W | Updated 15 seconds ago

Light Rain
Light Rain Mist
71.8 °F
Feels Like 71.8 °F
N
0.0
Wind Variable Wind from WSW
Gusts 0.0 mph

Today
High -- | Low -- °F
--% Chance of Precip.
Yesterday
High -- | Low -- °F
Precip. -- in
6:13 AM 7:13 PM
Waning Gibbous, 63% visible
Pressure 29.94 in
Visibility 5.0 miles
Clouds Overcast 8000 ft
Dew Point 69 °F
Humidity 92%
Rainfall 0.00 in
Snow Depth Not available.
UV 0 out of 12
Pollen 8.60 out of 12
Air Quality Not available.
Flu Activity Not available.
METAR KOWD 040453Z 00000KT 5SM -RA BR OVC080 22/21 A2994 RMK AO2 RAB43 SLP137 P0001 T02220206 403060144
Pressure 29.94 in
Visibility 5.0 miles
Clouds Overcast 8000 ft
Dew Point 69 °F
Humidity 92%
Rainfall 0.00 in
Snow Depth Not available.
UV 0 out of 12
Pollen 8.60 out of 12
Air Quality Not available.
Flu Activity Not available.
METAR KOWD 040453Z 00000KT 5SM -RA BR OVC080 22/21 A2994 RMK AO2 RAB43 SLP137 P0001 T02220206 403060144

10-Day Weather Forecast

×

Almanac

Astronomy

Sep. 04, 2015 Rise Set
Actual Time
Civil Twilight
Nautical Twilight
Astronomical Twilight
Moon
Length of Visible Light
Length of Day
Tomorrow will be .
, % of the Moon is Illuminated

Today's Extremes

State Highs State Lows

Community

WunderPhotos

Upload Photos

1,852,129 photos uploaded!

WunderBlogs® & News

Nearby

Air Quality

  Air Quality AQ Index Pollutant
Not available.

Snow Depth

Station Depth Elevation

Earthquake Activity

City Distance Mag. Time & Date
Minimum magnitude displayed is 2.5.

Coastal Water Temperatures

Place Temperature

Stations

Nearby Weather Stations

Station Location Temp. Windchill Dew Point Humidity Wind Precip. Elev Updated Type